createdAt,value
2018-11-01T00:00:20.070Z,12.62
2018-11-01T00:02:50.039Z,12.62
2018-11-01T00:05:19.281Z,12.62
2018-11-01T00:07:48.440Z,12.62
2018-11-01T00:10:17.593Z,12.61
2018-11-01T00:12:46.798Z,12.61
2018-11-01T00:15:16.482Z,12.60
2018-11-01T00:17:45.717Z,12.58
2018-11-01T00:20:15.215Z,12.56
2018-11-01T00:22:45.425Z,12.56
2018-11-01T00:25:15.105Z,12.54
2018-11-01T00:27:44.556Z,12.54
2018-11-01T00:30:13.662Z,12.54
2018-11-01T00:32:42.735Z,12.56
2018-11-01T00:35:11.873Z,12.55
2018-11-01T00:37:41.545Z,12.55
2018-11-01T00:40:13.630Z,12.58
2018-11-01T00:42:44.268Z,12.57
2018-11-01T00:45:14.381Z,12.57
2018-11-01T00:47:43.535Z,12.58
2018-11-01T00:50:13.916Z,12.58
2018-11-01T00:52:43.924Z,12.59
2018-11-01T00:55:13.791Z,12.60
2018-11-01T00:57:43.323Z,12.62
2018-11-01T01:00:14.689Z,12.63
2018-11-01T01:02:43.873Z,12.65
2018-11-01T01:05:13.388Z,12.63
2018-11-01T01:07:42.471Z,12.62
2018-11-01T01:10:15.057Z,12.63
2018-11-01T01:12:45.022Z,12.63
2018-11-01T01:15:14.294Z,12.61
2018-11-01T01:17:43.478Z,12.62
2018-11-01T01:20:15.464Z,12.62
2018-11-01T01:22:46.803Z,12.62
2018-11-01T01:25:17.356Z,12.61
2018-11-01T01:27:46.433Z,12.59
2018-11-01T01:30:19.309Z,12.58
2018-11-01T01:32:50.082Z,12.57
2018-11-01T01:35:19.426Z,12.59
2018-11-01T01:37:48.525Z,12.61
2018-11-01T01:40:17.942Z,12.66
2018-11-01T01:42:52.171Z,12.71
2018-11-01T01:45:21.972Z,12.73
2018-11-01T01:47:51.569Z,12.78
2018-11-01T01:50:21.402Z,12.84
2018-11-01T01:52:50.913Z,12.87
2018-11-01T01:55:20.130Z,12.89
2018-11-01T01:57:49.513Z,12.88
2018-11-01T02:00:20.078Z,12.84
2018-11-01T02:02:51.830Z,12.80
2018-11-01T02:05:24.582Z,12.77
2018-11-01T02:07:54.416Z,12.72
2018-11-01T02:10:25.813Z,12.67
2018-11-01T02:12:55.789Z,12.61
2018-11-01T02:15:24.882Z,12.55
2018-11-01T02:17:54.156Z,12.45
2018-11-01T02:20:23.501Z,12.37
2018-11-01T02:22:53.089Z,12.31
2018-11-01T02:25:24.300Z,12.25
2018-11-01T02:28:00.120Z,12.19
2018-11-01T02:30:29.492Z,12.15
2018-11-01T02:32:58.632Z,12.11
2018-11-01T02:35:28.673Z,12.09
2018-11-01T02:37:58.893Z,12.05
2018-11-01T02:40:28.395Z,12.00
2018-11-01T02:42:57.720Z,11.95
2018-11-01T02:45:26.912Z,11.94
2018-11-01T02:47:56.081Z,11.95
2018-11-01T02:50:25.269Z,11.94
2018-11-01T02:52:54.486Z,11.92
2018-11-01T02:55:23.983Z,11.90
2018-11-01T02:57:53.131Z,11.89
2018-11-01T03:00:22.194Z,11.87
2018-11-01T03:02:51.415Z,11.84
2018-11-01T03:05:20.597Z,11.81
2018-11-01T03:07:49.908Z,11.78
2018-11-01T03:10:19.153Z,11.76
2018-11-01T03:12:48.404Z,11.74
2018-11-01T03:15:17.766Z,11.73
2018-11-01T03:17:47.892Z,11.70
2018-11-01T03:20:17.146Z,11.67
2018-11-01T03:22:46.413Z,11.62
2018-11-01T03:25:15.628Z,11.59
2018-11-01T03:27:44.698Z,11.55
2018-11-01T03:30:15.355Z,11.53
2018-11-01T03:32:44.586Z,11.50
2018-11-01T03:35:13.949Z,11.48
2018-11-01T03:37:43.209Z,11.47
2018-11-01T03:40:13.294Z,11.47
2018-11-01T03:42:42.930Z,11.48
2018-11-01T03:45:13.873Z,11.49
2018-11-01T03:47:43.329Z,11.48
2018-11-01T03:50:12.956Z,11.48
2018-11-01T03:52:42.188Z,11.47
2018-11-01T03:55:12.402Z,11.45
2018-11-01T03:57:43.004Z,11.44
2018-11-01T04:00:14.908Z,11.44
2018-11-01T04:02:45.911Z,11.46
2018-11-01T04:05:15.027Z,11.45
2018-11-01T04:07:44.288Z,11.45
2018-11-01T04:10:13.581Z,11.44
2018-11-01T04:12:42.854Z,11.45
2018-11-01T04:15:13.638Z,11.45
2018-11-01T04:17:43.585Z,11.43
2018-11-01T04:20:13.907Z,11.38
2018-11-01T04:22:43.565Z,11.38
2018-11-01T04:25:14.300Z,11.41
2018-11-01T04:27:44.227Z,11.39
2018-11-01T04:30:14.015Z,11.40
2018-11-01T04:32:43.392Z,11.40
2018-11-01T04:35:12.947Z,11.41
2018-11-01T04:37:42.560Z,11.42
2018-11-01T04:40:12.003Z,11.43
2018-11-01T04:42:42.673Z,11.43
2018-11-01T04:45:13.126Z,11.43
2018-11-01T04:47:42.510Z,11.43
2018-11-01T04:50:12.657Z,11.43
2018-11-01T04:52:44.234Z,11.40
2018-11-01T04:55:13.541Z,11.37
2018-11-01T04:57:42.854Z,11.35
2018-11-01T05:00:13.930Z,11.33
2018-11-01T05:02:44.017Z,11.31
2018-11-01T05:05:13.784Z,11.26
2018-11-01T05:07:42.686Z,11.25
2018-11-01T05:10:13.917Z,11.24
2018-11-01T05:12:43.534Z,11.20
2018-11-01T05:15:12.684Z,11.18
2018-11-01T05:17:42.112Z,11.16
2018-11-01T05:20:12.927Z,11.14
2018-11-01T05:22:45.013Z,11.11
2018-11-01T05:25:15.159Z,11.11
2018-11-01T05:27:46.282Z,11.10
2018-11-01T05:32:52.968Z,11.14
2018-11-01T05:35:22.003Z,11.13
2018-11-01T05:37:52.231Z,11.13
2018-11-01T05:40:21.777Z,11.16
2018-11-01T05:42:54.437Z,11.21
2018-11-01T05:45:24.104Z,11.25
2018-11-01T05:47:53.340Z,11.33
2018-11-01T05:50:24.178Z,11.39
2018-11-01T05:52:54.397Z,11.44
2018-11-01T05:55:23.629Z,11.50
2018-11-01T05:57:53.225Z,11.57
2018-11-01T06:00:22.796Z,11.62
2018-11-01T06:02:51.889Z,11.67
2018-11-01T06:05:21.535Z,11.73
2018-11-01T06:07:56.347Z,11.77
2018-11-01T06:10:25.556Z,11.80
2018-11-01T06:12:54.999Z,11.83
2018-11-01T06:15:24.933Z,11.87
2018-11-01T06:17:54.648Z,11.91
2018-11-01T06:20:24.301Z,11.92
2018-11-01T06:22:53.757Z,11.93
2018-11-01T06:25:23.467Z,11.96
2018-11-01T06:27:52.533Z,11.94
2018-11-01T06:30:21.942Z,11.92
2018-11-01T06:32:51.137Z,11.93
2018-11-01T06:35:25.367Z,11.94
2018-11-01T06:37:54.966Z,11.95
2018-11-01T06:40:24.438Z,11.95
2018-11-01T06:42:53.923Z,11.94
2018-11-01T06:45:23.706Z,11.92
2018-11-01T06:47:53.064Z,11.91
2018-11-01T06:50:22.952Z,11.92
2018-11-01T06:52:52.816Z,11.90
2018-11-01T06:55:21.852Z,11.88
2018-11-01T06:57:51.429Z,11.90
2018-11-01T07:00:21.129Z,11.94
2018-11-01T07:02:50.793Z,11.98
2018-11-01T07:05:19.991Z,12.02
2018-11-01T07:07:49.651Z,12.06
2018-11-01T07:10:19.529Z,12.07
2018-11-01T07:12:49.450Z,12.11
2018-11-01T07:15:19.216Z,12.12
2018-11-01T07:17:49.257Z,12.13
2018-11-01T07:20:19.148Z,12.14
2018-11-01T07:22:49.269Z,12.17
2018-11-01T07:25:19.150Z,12.20
2018-11-01T07:27:48.999Z,12.26
2018-11-01T07:30:19.013Z,12.29
2018-11-01T07:32:48.183Z,12.35
2018-11-01T07:35:17.423Z,12.41
2018-11-01T07:37:47.251Z,12.47
2018-11-01T07:40:17.953Z,12.54
2018-11-01T07:42:47.415Z,12.60
2018-11-01T07:45:16.465Z,12.65
2018-11-01T07:47:45.987Z,12.72
2018-11-01T07:50:16.315Z,12.78
2018-11-01T07:52:47.113Z,12.84
2018-11-01T07:55:16.515Z,12.90
2018-11-01T07:57:45.960Z,13.00
2018-11-01T08:00:17.946Z,13.07
2018-11-01T08:02:48.115Z,13.15
2018-11-01T08:05:18.055Z,13.26
2018-11-01T08:07:48.136Z,13.35
2018-11-01T08:10:18.885Z,13.43
2018-11-01T08:12:48.996Z,13.50
2018-11-01T08:15:19.636Z,13.57
2018-11-01T08:17:48.667Z,13.63
2018-11-01T08:20:18.275Z,13.69
2018-11-01T08:22:47.755Z,13.73
2018-11-01T08:25:17.609Z,13.79
2018-11-01T08:27:48.255Z,13.86
2018-11-01T08:30:18.598Z,13.90
2018-11-01T08:32:48.060Z,13.92
2018-11-01T08:35:17.093Z,13.98
2018-11-01T08:37:46.936Z,14.02
2018-11-01T08:40:17.457Z,13.98
2018-11-01T08:42:46.547Z,13.97
2018-11-01T08:45:16.747Z,13.94
2018-11-01T08:47:46.044Z,13.91
2018-11-01T08:50:16.269Z,13.84
2018-11-01T08:52:46.307Z,13.81
2018-11-01T08:55:15.680Z,13.78
2018-11-01T08:57:45.708Z,13.76
2018-11-01T09:00:15.348Z,13.74
2018-11-01T09:02:44.977Z,13.73
2018-11-01T09:05:14.461Z,13.73
2018-11-01T09:07:45.230Z,13.73
2018-11-01T09:10:16.513Z,13.71
2018-11-01T09:12:46.523Z,13.68
2018-11-01T09:15:17.188Z,13.66
2018-11-01T09:17:46.265Z,13.67
2018-11-01T09:20:15.989Z,13.69
2018-11-01T09:22:45.501Z,13.74
2018-11-01T09:25:15.061Z,13.78
2018-11-01T09:27:44.929Z,13.85
2018-11-01T09:30:15.436Z,13.95
2018-11-01T09:32:45.344Z,14.01
2018-11-01T09:35:15.054Z,14.07
2018-11-01T09:37:44.413Z,14.14
2018-11-01T09:40:15.045Z,14.19
2018-11-01T09:42:45.207Z,14.28
2018-11-01T09:45:14.835Z,14.35
2018-11-01T09:47:44.334Z,14.40
2018-11-01T09:50:13.571Z,14.45
2018-11-01T09:52:42.771Z,14.54
2018-11-01T09:55:12.752Z,14.62
2018-11-01T09:57:42.836Z,14.70
2018-11-01T10:00:13.703Z,14.78
2018-11-01T10:02:43.539Z,14.88
2018-11-01T10:05:12.925Z,15.01
2018-11-01T10:07:42.226Z,15.16
2018-11-01T10:10:13.127Z,15.29
2018-11-01T10:12:42.475Z,15.41
2018-11-01T10:15:12.519Z,15.52
2018-11-01T10:17:42.445Z,15.64
2018-11-01T10:20:13.384Z,15.73
2018-11-01T10:22:43.302Z,15.77
2018-11-01T10:25:14.712Z,15.82
2018-11-01T10:27:43.952Z,15.90
2018-11-01T10:30:18.813Z,15.94
2018-11-01T10:32:48.942Z,15.98
2018-11-01T10:35:19.090Z,16.02
2018-11-01T10:37:49.336Z,16.06
2018-11-01T10:40:19.620Z,16.09
2018-11-01T10:42:50.893Z,16.11
2018-11-01T10:45:20.561Z,16.12
2018-11-01T10:50:27.355Z,16.13
2018-11-01T10:52:57.084Z,16.14
2018-11-01T10:55:26.524Z,16.12
2018-11-01T10:57:55.924Z,16.15
2018-11-01T11:00:30.429Z,16.19
2018-11-01T11:02:59.782Z,16.19
2018-11-01T11:05:28.857Z,16.23
2018-11-01T11:07:58.552Z,16.25
2018-11-01T11:10:28.113Z,16.26
2018-11-01T11:12:57.396Z,16.24
2018-11-01T11:15:26.799Z,16.23
2018-11-01T11:17:56.004Z,16.26
2018-11-01T11:20:25.543Z,16.28
2018-11-01T11:22:54.909Z,16.30
2018-11-01T11:25:25.345Z,16.36
2018-11-01T11:27:55.267Z,16.39
2018-11-01T11:30:24.956Z,16.42
2018-11-01T11:32:53.895Z,16.43
2018-11-01T11:35:22.973Z,16.43
2018-11-01T11:37:52.474Z,16.45
2018-11-01T11:40:22.127Z,16.47
2018-11-01T11:42:51.607Z,16.52
2018-11-01T11:45:21.749Z,16.55
2018-11-01T11:50:27.654Z,16.53
2018-11-01T11:52:57.460Z,16.55
2018-11-01T11:55:27.211Z,16.57
2018-11-01T11:57:56.858Z,16.60
2018-11-01T12:00:27.496Z,16.59
2018-11-01T12:02:57.004Z,16.60
2018-11-01T12:05:26.694Z,16.59
2018-11-01T12:07:56.154Z,16.57
2018-11-01T12:10:25.544Z,16.53
2018-11-01T12:12:54.911Z,16.52
2018-11-01T12:15:24.112Z,16.47
2018-11-01T12:17:53.299Z,16.43
2018-11-01T12:20:22.727Z,16.40
2018-11-01T12:22:52.117Z,16.34
2018-11-01T12:25:22.165Z,16.29
2018-11-01T12:27:51.954Z,16.27
2018-11-01T12:30:21.203Z,16.27
2018-11-01T12:32:50.903Z,16.26
2018-11-01T12:35:20.844Z,16.24
2018-11-01T12:37:50.417Z,16.26
2018-11-01T12:40:20.232Z,16.26
2018-11-01T12:42:50.150Z,16.30
2018-11-01T12:45:19.900Z,16.35
2018-11-01T12:47:49.932Z,16.34
2018-11-01T12:50:19.018Z,16.35
2018-11-01T12:52:48.895Z,16.33
2018-11-01T12:55:17.974Z,16.28
2018-11-01T12:57:47.526Z,16.24
2018-11-01T13:00:17.361Z,16.20
2018-11-01T13:02:47.019Z,16.17
2018-11-01T13:05:16.434Z,16.15
2018-11-01T13:07:45.531Z,16.13
2018-11-01T13:10:14.565Z,16.13
2018-11-01T13:12:43.626Z,16.11
2018-11-01T13:15:13.392Z,16.06
2018-11-01T13:17:43.319Z,16.01
2018-11-01T13:20:13.442Z,15.97
2018-11-01T13:22:43.208Z,15.93
2018-11-01T13:25:13.161Z,15.90
2018-11-01T13:27:42.490Z,15.86
2018-11-01T13:30:14.618Z,15.85
2018-11-01T13:32:45.460Z,15.83
2018-11-01T13:35:16.035Z,15.81
2018-11-01T13:37:45.170Z,15.80
2018-11-01T13:40:15.649Z,15.81
2018-11-01T13:42:44.706Z,15.79
2018-11-01T13:45:13.897Z,15.77
2018-11-01T13:47:43.634Z,15.77
2018-11-01T13:50:13.409Z,15.76
2018-11-01T13:52:42.624Z,15.74
2018-11-01T13:55:12.773Z,15.72
2018-11-01T13:57:42.652Z,15.66
2018-11-01T14:00:13.720Z,15.65
2018-11-01T14:02:43.517Z,15.63
2018-11-01T14:05:15.861Z,15.62
2018-11-01T14:07:45.574Z,15.63
2018-11-01T14:10:16.316Z,15.62
2018-11-01T14:12:46.107Z,15.58
2018-11-01T14:15:15.780Z,15.53
2018-11-01T14:17:45.051Z,15.47
2018-11-01T14:20:14.973Z,15.43
2018-11-01T14:22:44.262Z,15.36
2018-11-01T14:25:14.198Z,15.32
2018-11-01T14:27:44.091Z,15.26
2018-11-01T14:30:15.216Z,15.22
2018-11-01T14:32:44.635Z,15.19
2018-11-01T14:35:13.951Z,15.16
2018-11-01T14:37:43.441Z,15.13
2018-11-01T14:40:13.992Z,15.07
2018-11-01T14:42:43.653Z,15.01
2018-11-01T14:45:13.241Z,14.97
2018-11-01T14:47:42.971Z,14.94
2018-11-01T14:50:12.711Z,14.88
2018-11-01T14:52:43.955Z,14.84
2018-11-01T14:55:13.470Z,14.79
2018-11-01T14:57:43.858Z,14.76
2018-11-01T15:00:12.865Z,14.73
2018-11-01T15:02:42.770Z,14.73
2018-11-01T15:05:12.305Z,14.72
2018-11-01T15:07:42.037Z,14.73
2018-11-01T15:10:13.699Z,14.73
2018-11-01T15:12:44.460Z,14.72
2018-11-01T15:15:13.975Z,14.70
2018-11-01T15:17:43.522Z,14.72
2018-11-01T15:20:13.667Z,14.71
2018-11-01T15:22:43.519Z,14.71
2018-11-01T15:25:13.164Z,14.71
2018-11-01T15:27:42.972Z,14.70
2018-11-01T15:30:15.023Z,14.71
2018-11-01T15:32:44.998Z,14.71
2018-11-01T15:35:14.422Z,14.71
2018-11-01T15:37:44.240Z,14.72
2018-11-01T15:40:14.168Z,14.70
2018-11-01T15:42:44.137Z,14.69
2018-11-01T15:45:17.019Z,14.66
2018-11-01T15:47:46.828Z,14.64
2018-11-01T15:50:16.603Z,14.63
2018-11-01T15:52:45.914Z,14.64
2018-11-01T15:55:15.347Z,14.65
2018-11-01T15:57:44.883Z,14.66
2018-11-01T16:00:15.352Z,14.68
2018-11-01T16:02:45.656Z,14.71
2018-11-01T16:05:15.624Z,14.72
2018-11-01T16:07:45.703Z,14.70
2018-11-01T16:10:15.349Z,14.68
2018-11-01T16:12:44.659Z,14.63
2018-11-01T16:15:16.485Z,14.58
2018-11-01T16:17:47.319Z,14.51
2018-11-01T16:20:16.912Z,14.47
2018-11-01T16:22:46.034Z,14.44
2018-11-01T16:25:15.245Z,14.41
2018-11-01T16:27:44.640Z,14.39
2018-11-01T16:30:14.298Z,14.37
2018-11-01T16:32:43.796Z,14.35
2018-11-01T16:35:13.386Z,14.32
2018-11-01T16:37:42.826Z,14.28
2018-11-01T16:40:13.020Z,14.27
2018-11-01T16:42:42.438Z,14.26
2018-11-01T16:45:15.450Z,14.23
2018-11-01T16:47:45.080Z,14.20
2018-11-01T16:50:14.297Z,14.17
2018-11-01T16:52:43.736Z,14.17
2018-11-01T16:55:12.909Z,14.14
2018-11-01T16:57:42.128Z,14.09
2018-11-01T17:00:13.212Z,14.05
2018-11-01T17:02:42.527Z,13.99
2018-11-01T17:05:12.197Z,13.93
2018-11-01T17:07:41.524Z,13.86
2018-11-01T17:10:12.214Z,13.80
2018-11-01T17:12:41.237Z,13.72
2018-11-01T17:15:13.750Z,13.68
2018-11-01T17:17:43.323Z,13.60
2018-11-01T17:20:12.422Z,13.54
2018-11-01T17:22:42.131Z,13.51
2018-11-01T17:25:11.484Z,13.47
2018-11-01T17:27:40.627Z,13.41
2018-11-01T17:30:10.844Z,13.39
2018-11-01T17:32:45.269Z,13.34
2018-11-01T17:35:14.892Z,13.26
2018-11-01T17:37:44.256Z,13.22
2018-11-01T17:40:13.517Z,13.18
2018-11-01T17:42:43.437Z,13.15
2018-11-01T17:45:12.651Z,13.12
2018-11-01T17:47:42.246Z,13.15
2018-11-01T17:50:13.525Z,13.15
2018-11-01T17:52:43.268Z,13.17
2018-11-01T17:55:12.711Z,13.19
2018-11-01T17:57:42.205Z,13.25
2018-11-01T18:00:13.988Z,13.27
2018-11-01T18:02:43.513Z,13.29
2018-11-01T18:05:13.092Z,13.31
2018-11-01T18:07:42.984Z,13.35
2018-11-01T18:10:13.402Z,13.36
2018-11-01T18:12:42.591Z,13.39
2018-11-01T18:15:11.837Z,13.41
2018-11-01T18:17:40.909Z,13.45
2018-11-01T18:20:11.652Z,13.49
2018-11-01T18:22:40.920Z,13.52
2018-11-01T18:25:12.023Z,13.56
2018-11-01T18:27:41.546Z,13.59
2018-11-01T18:30:13.344Z,13.63
2018-11-01T18:32:43.281Z,13.66
2018-11-01T18:35:12.376Z,13.68
2018-11-01T18:37:42.254Z,13.71
2018-11-01T18:40:14.699Z,13.73
2018-11-01T18:42:43.874Z,13.74
2018-11-01T18:45:14.267Z,13.72
2018-11-01T18:47:43.981Z,13.73
2018-11-01T18:50:14.706Z,13.72
2018-11-01T18:52:43.966Z,13.73
2018-11-01T18:55:13.483Z,13.71
2018-11-01T18:57:42.749Z,13.70
2018-11-01T19:00:14.363Z,13.68
2018-11-01T19:02:43.668Z,13.69
2018-11-01T19:05:13.335Z,13.70
2018-11-01T19:07:42.884Z,13.72
2018-11-01T19:10:14.465Z,13.78
2018-11-01T19:12:43.841Z,13.79
2018-11-01T19:15:13.957Z,13.86
2018-11-01T19:17:43.386Z,13.89
2018-11-01T19:20:13.645Z,13.91
2018-11-01T19:22:43.104Z,13.95
2018-11-01T19:25:12.904Z,13.97
2018-11-01T19:27:42.044Z,14.00
2018-11-01T19:30:12.912Z,14.00
2018-11-01T19:32:42.868Z,14.00
2018-11-01T19:35:13.244Z,14.01
2018-11-01T19:37:42.416Z,14.01
2018-11-01T19:40:14.424Z,14.02
2018-11-01T19:42:44.057Z,14.02
2018-11-01T19:45:13.393Z,14.02
2018-11-01T19:47:42.615Z,14.03
2018-11-01T19:50:14.045Z,14.07
2018-11-01T19:52:43.530Z,14.10
2018-11-01T19:55:13.527Z,14.13
2018-11-01T19:57:43.262Z,14.15
2018-11-01T20:00:15.077Z,14.17
2018-11-01T20:02:44.949Z,14.20
2018-11-01T20:05:14.396Z,14.22
2018-11-01T20:07:44.057Z,14.26
2018-11-01T20:10:14.252Z,14.30
2018-11-01T20:12:43.849Z,14.34
2018-11-01T20:15:13.135Z,14.38
2018-11-01T20:17:42.348Z,14.43
2018-11-01T20:20:14.198Z,14.48
2018-11-01T20:22:44.342Z,14.52
2018-11-01T20:25:13.435Z,14.55
2018-11-01T20:27:42.645Z,14.57
2018-11-01T20:30:14.749Z,14.62
2018-11-01T20:32:44.386Z,14.65
2018-11-01T20:35:14.563Z,14.67
2018-11-01T20:37:44.201Z,14.70
2018-11-01T20:40:13.808Z,14.73
2018-11-01T20:42:43.628Z,14.74
2018-11-01T20:45:13.390Z,14.75
2018-11-01T20:47:42.694Z,14.76
2018-11-01T20:50:12.830Z,14.79
2018-11-01T20:52:42.074Z,14.83
2018-11-01T20:55:11.174Z,14.84
2018-11-01T20:57:43.082Z,14.87
2018-11-01T21:00:13.977Z,14.91
2018-11-01T21:02:43.465Z,14.93
2018-11-01T21:05:12.749Z,14.95
2018-11-01T21:07:41.823Z,14.98
2018-11-01T21:10:11.730Z,15.02
2018-11-01T21:12:41.111Z,15.04
2018-11-01T21:15:13.349Z,15.09
2018-11-01T21:17:43.010Z,15.13
2018-11-01T21:20:12.996Z,15.13
2018-11-01T21:22:42.289Z,15.14
2018-11-01T21:25:13.650Z,15.14
2018-11-01T21:27:42.944Z,15.12
2018-11-01T21:30:12.498Z,15.09
2018-11-01T21:32:41.734Z,15.07
2018-11-01T21:35:12.265Z,15.02
2018-11-01T21:37:42.780Z,14.98
2018-11-01T21:40:13.042Z,14.92
2018-11-01T21:42:42.708Z,14.86
2018-11-01T21:45:13.660Z,14.83
2018-11-01T21:47:43.847Z,14.77
2018-11-01T21:50:13.654Z,14.72
2018-11-01T21:52:43.748Z,14.71
2018-11-01T21:55:13.520Z,14.69
2018-11-01T21:57:45.568Z,14.68
2018-11-01T22:00:15.053Z,14.66
2018-11-01T22:02:44.844Z,14.68
2018-11-01T22:05:14.074Z,14.69
2018-11-01T22:07:43.402Z,14.71
2018-11-01T22:10:12.609Z,14.68
2018-11-01T22:12:41.824Z,14.68
2018-11-01T22:15:12.283Z,14.66
2018-11-01T22:17:42.247Z,14.66
2018-11-01T22:20:12.487Z,14.63
2018-11-01T22:22:42.269Z,14.62
2018-11-01T22:25:11.839Z,14.60
2018-11-01T22:27:41.241Z,14.57
2018-11-01T22:30:11.781Z,14.56
2018-11-01T22:32:42.373Z,14.55
2018-11-01T22:35:12.346Z,14.54
2018-11-01T22:37:42.687Z,14.54
2018-11-01T22:40:12.311Z,14.54
2018-11-01T22:42:41.543Z,14.53
2018-11-01T22:45:11.544Z,14.53
2018-11-01T22:47:42.359Z,14.54
2018-11-01T22:50:11.826Z,14.51
2018-11-01T22:52:41.553Z,14.50
2018-11-01T22:55:12.192Z,14.48
2018-11-01T22:57:41.644Z,14.47
2018-11-01T23:00:15.260Z,14.46
2018-11-01T23:02:46.024Z,14.44
2018-11-01T23:05:16.485Z,14.42
2018-11-01T23:07:46.446Z,14.40
2018-11-01T23:10:16.195Z,14.39
2018-11-01T23:12:45.713Z,14.37
2018-11-01T23:15:16.152Z,14.34
2018-11-01T23:17:45.220Z,14.29
2018-11-01T23:20:14.800Z,14.26
2018-11-01T23:22:45.682Z,14.22
2018-11-01T23:25:16.241Z,14.21
2018-11-01T23:27:46.158Z,14.21
2018-11-01T23:30:15.817Z,14.22
2018-11-01T23:32:45.094Z,14.22
2018-11-01T23:35:14.609Z,14.24
2018-11-01T23:37:49.118Z,14.25
2018-11-01T23:40:23.989Z,14.28
2018-11-01T23:42:58.652Z,14.29
2018-11-01T23:45:33.368Z,14.32
2018-11-01T23:48:01.877Z,14.32
2018-11-01T23:51:04.755Z,14.35
2018-11-01T23:53:36.402Z,14.33
2018-11-01T23:56:05.744Z,14.34
2018-11-01T23:58:35.060Z,14.36
